sensor_id;sensor_type;location;lat;lon;timestamp;temperature;humidity
43520;DHT22;46848;51.980;5.918;2024-01-11T00:00:45;-0.60;60.60
43520;DHT22;46848;51.980;5.918;2024-01-11T00:03:10;-0.60;60.50
43520;DHT22;46848;51.980;5.918;2024-01-11T00:05:36;-0.60;60.60
43520;DHT22;46848;51.980;5.918;2024-01-11T00:08:02;-0.60;60.70
43520;DHT22;46848;51.980;5.918;2024-01-11T00:10:27;-0.60;60.60
43520;DHT22;46848;51.980;5.918;2024-01-11T00:12:53;-0.60;60.80
43520;DHT22;46848;51.980;5.918;2024-01-11T00:15:19;-0.70;60.70
43520;DHT22;46848;51.980;5.918;2024-01-11T00:17:44;-0.70;60.70
43520;DHT22;46848;51.980;5.918;2024-01-11T00:20:10;-0.70;60.80
43520;DHT22;46848;51.980;5.918;2024-01-11T00:22:36;-0.70;60.80
43520;DHT22;46848;51.980;5.918;2024-01-11T00:25:02;-0.70;60.80
43520;DHT22;46848;51.980;5.918;2024-01-11T00:27:28;-0.70;60.80
43520;DHT22;46848;51.980;5.918;2024-01-11T00:29:53;-0.80;60.90
43520;DHT22;46848;51.980;5.918;2024-01-11T00:32:19;-0.80;61.00
43520;DHT22;46848;51.980;5.918;2024-01-11T00:34:46;-0.90;61.70
43520;DHT22;46848;51.980;5.918;2024-01-11T00:37:12;-0.90;61.10
43520;DHT22;46848;51.980;5.918;2024-01-11T00:39:38;-0.90;61.10
43520;DHT22;46848;51.980;5.918;2024-01-11T00:42:03;-1.00;61.90
43520;DHT22;46848;51.980;5.918;2024-01-11T00:44:29;-1.00;61.60
43520;DHT22;46848;51.980;5.918;2024-01-11T00:46:55;-1.00;61.50
43520;DHT22;46848;51.980;5.918;2024-01-11T00:49:21;-1.00;61.70
43520;DHT22;46848;51.980;5.918;2024-01-11T00:51:46;-1.00;61.70
43520;DHT22;46848;51.980;5.918;2024-01-11T00:54:12;-1.00;61.60
43520;DHT22;46848;51.980;5.918;2024-01-11T00:56:38;-1.00;61.80
43520;DHT22;46848;51.980;5.918;2024-01-11T00:59:03;-1.00;61.90
43520;DHT22;46848;51.980;5.918;2024-01-11T01:01:29;-1.10;61.90
43520;DHT22;46848;51.980;5.918;2024-01-11T01:03:55;-1.10;62.00
43520;DHT22;46848;51.980;5.918;2024-01-11T01:06:21;-1.20;62.10
43520;DHT22;46848;51.980;5.918;2024-01-11T01:08:46;-1.20;62.30
43520;DHT22;46848;51.980;5.918;2024-01-11T01:11:12;-1.30;62.30
43520;DHT22;46848;51.980;5.918;2024-01-11T01:13:38;-1.30;62.60
43520;DHT22;46848;51.980;5.918;2024-01-11T01:16:03;-1.40;62.60
43520;DHT22;46848;51.980;5.918;2024-01-11T01:18:29;-1.40;62.80
43520;DHT22;46848;51.980;5.918;2024-01-11T01:20:55;-1.30;62.90
43520;DHT22;46848;51.980;5.918;2024-01-11T01:23:21;-1.30;62.90
43520;DHT22;46848;51.980;5.918;2024-01-11T01:25:46;-1.30;63.00
43520;DHT22;46848;51.980;5.918;2024-01-11T01:28:12;-1.30;63.10
43520;DHT22;46848;51.980;5.918;2024-01-11T01:30:37;-1.30;63.10
43520;DHT22;46848;51.980;5.918;2024-01-11T01:33:03;-1.30;63.10
43520;DHT22;46848;51.980;5.918;2024-01-11T01:35:29;-1.30;63.10
43520;DHT22;46848;51.980;5.918;2024-01-11T01:37:55;-1.30;63.10
43520;DHT22;46848;51.980;5.918;2024-01-11T01:40:20;-1.30;63.10
43520;DHT22;46848;51.980;5.918;2024-01-11T01:42:46;-1.40;63.30
43520;DHT22;46848;51.980;5.918;2024-01-11T01:45:12;-1.40;63.50
43520;DHT22;46848;51.980;5.918;2024-01-11T01:47:40;-1.50;63.60
43520;DHT22;46848;51.980;5.918;2024-01-11T01:50:07;-1.50;63.80
43520;DHT22;46848;51.980;5.918;2024-01-11T01:52:33;-1.50;63.80
43520;DHT22;46848;51.980;5.918;2024-01-11T01:55:01;-1.50;63.90
43520;DHT22;46848;51.980;5.918;2024-01-11T01:57:28;-1.50;64.50
43520;DHT22;46848;51.980;5.918;2024-01-11T01:59:54;-1.60;64.00
43520;DHT22;46848;51.980;5.918;2024-01-11T02:02:20;-1.50;64.20
43520;DHT22;46848;51.980;5.918;2024-01-11T02:04:46;-1.50;64.20
43520;DHT22;46848;51.980;5.918;2024-01-11T02:07:13;-1.50;64.20
43520;DHT22;46848;51.980;5.918;2024-01-11T02:09:40;-1.50;64.20
43520;DHT22;46848;51.980;5.918;2024-01-11T02:12:06;-1.50;64.20
43520;DHT22;46848;51.980;5.918;2024-01-11T02:14:34;-1.50;64.20
43520;DHT22;46848;51.980;5.918;2024-01-11T02:17:02;-1.50;64.40
43520;DHT22;46848;51.980;5.918;2024-01-11T02:19:28;-1.60;64.40
43520;DHT22;46848;51.980;5.918;2024-01-11T02:21:54;-1.60;64.50
43520;DHT22;46848;51.980;5.918;2024-01-11T02:24:20;-1.60;64.60
43520;DHT22;46848;51.980;5.918;2024-01-11T02:27:02;-1.60;65.20
43520;DHT22;46848;51.980;5.918;2024-01-11T02:29:28;-1.50;64.60
43520;DHT22;46848;51.980;5.918;2024-01-11T02:31:58;-1.60;64.70
43520;DHT22;46848;51.980;5.918;2024-01-11T02:34:27;-1.70;65.00
43520;DHT22;46848;51.980;5.918;2024-01-11T02:36:53;-1.80;65.20
43520;DHT22;46848;51.980;5.918;2024-01-11T02:39:19;-1.80;65.20
43520;DHT22;46848;51.980;5.918;2024-01-11T02:41:45;-1.80;65.40
43520;DHT22;46848;51.980;5.918;2024-01-11T02:44:12;-1.80;65.40
43520;DHT22;46848;51.980;5.918;2024-01-11T02:46:38;-1.80;65.40
43520;DHT22;46848;51.980;5.918;2024-01-11T02:49:03;-1.80;65.40
43520;DHT22;46848;51.980;5.918;2024-01-11T02:51:29;-1.80;65.50
43520;DHT22;46848;51.980;5.918;2024-01-11T02:53:55;-1.90;65.60
43520;DHT22;46848;51.980;5.918;2024-01-11T02:56:20;-1.80;65.80
43520;DHT22;46848;51.980;5.918;2024-01-11T02:58:46;-1.80;65.80
43520;DHT22;46848;51.980;5.918;2024-01-11T03:01:11;-1.90;65.80
43520;DHT22;46848;51.980;5.918;2024-01-11T03:03:37;-1.80;65.80
43520;DHT22;46848;51.980;5.918;2024-01-11T03:06:03;-1.80;65.70
43520;DHT22;46848;51.980;5.918;2024-01-11T03:08:29;-1.70;65.70
43520;DHT22;46848;51.980;5.918;2024-01-11T03:10:54;-1.70;65.60
43520;DHT22;46848;51.980;5.918;2024-01-11T03:13:20;-1.60;65.70
43520;DHT22;46848;51.980;5.918;2024-01-11T03:15:46;-1.70;65.50
43520;DHT22;46848;51.980;5.918;2024-01-11T03:18:11;-1.70;65.50
43520;DHT22;46848;51.980;5.918;2024-01-11T03:20:37;-1.70;65.60
43520;DHT22;46848;51.980;5.918;2024-01-11T03:23:03;-1.80;65.70
43520;DHT22;46848;51.980;5.918;2024-01-11T03:25:29;-1.80;65.90
43520;DHT22;46848;51.980;5.918;2024-01-11T03:27:55;-1.90;66.20
43520;DHT22;46848;51.980;5.918;2024-01-11T03:30:21;-1.90;66.30
43520;DHT22;46848;51.980;5.918;2024-01-11T03:32:46;-1.90;66.40
43520;DHT22;46848;51.980;5.918;2024-01-11T03:35:12;-2.00;67.00
43520;DHT22;46848;51.980;5.918;2024-01-11T03:37:38;-2.00;66.60
43520;DHT22;46848;51.980;5.918;2024-01-11T03:40:04;-2.00;66.70
43520;DHT22;46848;51.980;5.918;2024-01-11T03:42:29;-2.10;67.00
43520;DHT22;46848;51.980;5.918;2024-01-11T03:44:55;-2.10;67.20
43520;DHT22;46848;51.980;5.918;2024-01-11T03:47:21;-2.20;67.40
43520;DHT22;46848;51.980;5.918;2024-01-11T03:49:46;-2.20;67.40
43520;DHT22;46848;51.980;5.918;2024-01-11T03:52:12;-2.10;67.30
43520;DHT22;46848;51.980;5.918;2024-01-11T03:54:38;-2.00;67.30
43520;DHT22;46848;51.980;5.918;2024-01-11T03:57:03;-2.10;67.40
43520;DHT22;46848;51.980;5.918;2024-01-11T03:59:29;-2.10;67.30
43520;DHT22;46848;51.980;5.918;2024-01-11T04:01:55;-2.10;67.40
43520;DHT22;46848;51.980;5.918;2024-01-11T04:04:21;-2.10;67.60
43520;DHT22;46848;51.980;5.918;2024-01-11T04:06:48;-2.20;68.00
43520;DHT22;46848;51.980;5.918;2024-01-11T04:09:13;-2.20;68.10
43520;DHT22;46848;51.980;5.918;2024-01-11T04:11:39;-2.30;68.20
43520;DHT22;46848;51.980;5.918;2024-01-11T04:14:04;-2.30;68.30
43520;DHT22;46848;51.980;5.918;2024-01-11T04:16:30;-2.30;68.30
43520;DHT22;46848;51.980;5.918;2024-01-11T04:18:56;-2.30;68.40
43520;DHT22;46848;51.980;5.918;2024-01-11T04:21:25;-2.20;68.40
43520;DHT22;46848;51.980;5.918;2024-01-11T04:23:54;-2.20;68.30
43520;DHT22;46848;51.980;5.918;2024-01-11T04:26:20;-2.20;68.40
43520;DHT22;46848;51.980;5.918;2024-01-11T04:28:46;-2.20;68.40
43520;DHT22;46848;51.980;5.918;2024-01-11T04:31:13;-2.20;68.50
43520;DHT22;46848;51.980;5.918;2024-01-11T04:33:46;-2.20;68.50
43520;DHT22;46848;51.980;5.918;2024-01-11T04:36:12;-2.20;68.40
43520;DHT22;46848;51.980;5.918;2024-01-11T04:38:38;-2.30;68.60
43520;DHT22;46848;51.980;5.918;2024-01-11T04:41:11;-2.30;68.90
43520;DHT22;46848;51.980;5.918;2024-01-11T04:43:38;-2.30;69.00
43520;DHT22;46848;51.980;5.918;2024-01-11T04:46:30;-2.40;69.30
43520;DHT22;46848;51.980;5.918;2024-01-11T04:48:56;-2.40;69.30
43520;DHT22;46848;51.980;5.918;2024-01-11T04:51:21;-2.40;69.80
43520;DHT22;46848;51.980;5.918;2024-01-11T04:53:47;-2.50;69.70
43520;DHT22;46848;51.980;5.918;2024-01-11T04:56:16;-2.50;70.70
43520;DHT22;46848;51.980;5.918;2024-01-11T04:58:45;-2.50;69.90
43520;DHT22;46848;51.980;5.918;2024-01-11T05:01:17;-2.50;69.80
43520;DHT22;46848;51.980;5.918;2024-01-11T05:03:44;-2.40;69.80
43520;DHT22;46848;51.980;5.918;2024-01-11T05:06:20;-2.40;69.70
43520;DHT22;46848;51.980;5.918;2024-01-11T05:08:46;-2.40;69.70
43520;DHT22;46848;51.980;5.918;2024-01-11T05:11:19;-2.40;69.70
43520;DHT22;46848;51.980;5.918;2024-01-11T05:13:45;-2.50;69.70
43520;DHT22;46848;51.980;5.918;2024-01-11T05:18:43;-2.50;69.90
43520;DHT22;46848;51.980;5.918;2024-01-11T05:21:08;-2.50;69.90
43520;DHT22;46848;51.980;5.918;2024-01-11T05:23:35;-2.50;70.00
43520;DHT22;46848;51.980;5.918;2024-01-11T05:26:00;-2.50;70.00
43520;DHT22;46848;51.980;5.918;2024-01-11T05:28:26;-2.50;70.00
43520;DHT22;46848;51.980;5.918;2024-01-11T05:30:51;-2.50;70.10
43520;DHT22;46848;51.980;5.918;2024-01-11T05:33:17;-2.50;70.30
43520;DHT22;46848;51.980;5.918;2024-01-11T05:35:43;-2.50;70.30
43520;DHT22;46848;51.980;5.918;2024-01-11T05:38:08;-2.50;70.60
43520;DHT22;46848;51.980;5.918;2024-01-11T05:40:34;-2.50;70.50
43520;DHT22;46848;51.980;5.918;2024-01-11T05:42:59;-2.50;70.40
43520;DHT22;46848;51.980;5.918;2024-01-11T05:45:25;-2.50;70.30
43520;DHT22;46848;51.980;5.918;2024-01-11T05:47:50;-2.50;70.40
43520;DHT22;46848;51.980;5.918;2024-01-11T05:50:16;-2.50;70.40
43520;DHT22;46848;51.980;5.918;2024-01-11T05:52:42;-2.50;70.50
43520;DHT22;46848;51.980;5.918;2024-01-11T05:55:07;-2.50;70.50
43520;DHT22;46848;51.980;5.918;2024-01-11T05:57:33;-2.50;71.10
43520;DHT22;46848;51.980;5.918;2024-01-11T05:59:59;-2.40;70.40
43520;DHT22;46848;51.980;5.918;2024-01-11T06:02:24;-2.50;70.40
43520;DHT22;46848;51.980;5.918;2024-01-11T06:04:50;-2.50;70.40
43520;DHT22;46848;51.980;5.918;2024-01-11T06:07:15;-2.50;70.50
43520;DHT22;46848;51.980;5.918;2024-01-11T06:09:41;-2.50;70.60
43520;DHT22;46848;51.980;5.918;2024-01-11T06:12:07;-2.50;70.60
43520;DHT22;46848;51.980;5.918;2024-01-11T06:14:32;-2.50;70.60
43520;DHT22;46848;51.980;5.918;2024-01-11T06:16:58;-2.40;70.50
43520;DHT22;46848;51.980;5.918;2024-01-11T06:19:23;-2.40;70.40
43520;DHT22;46848;51.980;5.918;2024-01-11T06:21:49;-2.30;70.20
43520;DHT22;46848;51.980;5.918;2024-01-11T06:24:15;-2.30;70.10
43520;DHT22;46848;51.980;5.918;2024-01-11T06:26:40;-2.30;70.20
43520;DHT22;46848;51.980;5.918;2024-01-11T06:29:06;-2.30;70.30
43520;DHT22;46848;51.980;5.918;2024-01-11T06:31:31;-2.30;70.40
43520;DHT22;46848;51.980;5.918;2024-01-11T06:33:57;-2.40;70.30
43520;DHT22;46848;51.980;5.918;2024-01-11T06:36:23;-2.40;70.30
43520;DHT22;46848;51.980;5.918;2024-01-11T06:38:48;-2.30;70.30
43520;DHT22;46848;51.980;5.918;2024-01-11T06:41:14;-2.30;70.20
43520;DHT22;46848;51.980;5.918;2024-01-11T06:43:40;-2.30;70.20
43520;DHT22;46848;51.980;5.918;2024-01-11T06:46:06;-2.30;70.10
43520;DHT22;46848;51.980;5.918;2024-01-11T06:48:32;-2.20;70.10
43520;DHT22;46848;51.980;5.918;2024-01-11T06:50:58;-2.20;70.10
43520;DHT22;46848;51.980;5.918;2024-01-11T06:53:23;-2.20;70.10
43520;DHT22;46848;51.980;5.918;2024-01-11T06:55:49;-2.20;70.00
43520;DHT22;46848;51.980;5.918;2024-01-11T06:58:17;-2.20;70.00
43520;DHT22;46848;51.980;5.918;2024-01-11T07:00:43;-2.30;70.00
43520;DHT22;46848;51.980;5.918;2024-01-11T07:03:12;-2.30;70.10
43520;DHT22;46848;51.980;5.918;2024-01-11T07:05:37;-2.40;70.30
43520;DHT22;46848;51.980;5.918;2024-01-11T07:08:03;-2.50;70.60
43520;DHT22;46848;51.980;5.918;2024-01-11T07:10:29;-2.50;70.70
43520;DHT22;46848;51.980;5.918;2024-01-11T07:12:55;-2.40;70.60
43520;DHT22;46848;51.980;5.918;2024-01-11T07:15:21;-2.30;70.40
43520;DHT22;46848;51.980;5.918;2024-01-11T07:17:46;-2.30;70.40
43520;DHT22;46848;51.980;5.918;2024-01-11T07:20:12;-2.40;70.40
43520;DHT22;46848;51.980;5.918;2024-01-11T07:22:38;-2.40;70.50
43520;DHT22;46848;51.980;5.918;2024-01-11T07:25:04;-2.40;70.50
43520;DHT22;46848;51.980;5.918;2024-01-11T07:27:30;-2.40;70.40
43520;DHT22;46848;51.980;5.918;2024-01-11T07:29:55;-2.30;70.40
43520;DHT22;46848;51.980;5.918;2024-01-11T07:32:21;-2.30;70.30
43520;DHT22;46848;51.980;5.918;2024-01-11T07:34:47;-2.20;70.30
43520;DHT22;46848;51.980;5.918;2024-01-11T07:37:12;-2.20;70.40
43520;DHT22;46848;51.980;5.918;2024-01-11T07:39:38;-2.00;70.60
43520;DHT22;46848;51.980;5.918;2024-01-11T07:42:04;-1.80;70.60
43520;DHT22;46848;51.980;5.918;2024-01-11T07:44:29;-1.60;70.60
43520;DHT22;46848;51.980;5.918;2024-01-11T07:46:55;-1.40;70.70
43520;DHT22;46848;51.980;5.918;2024-01-11T07:49:21;-1.20;70.60
43520;DHT22;46848;51.980;5.918;2024-01-11T07:51:46;-1.10;70.40
43520;DHT22;46848;51.980;5.918;2024-01-11T07:54:12;-1.00;70.50
43520;DHT22;46848;51.980;5.918;2024-01-11T07:56:38;-0.90;70.40
43520;DHT22;46848;51.980;5.918;2024-01-11T07:59:03;-0.70;70.20
43520;DHT22;46848;51.980;5.918;2024-01-11T08:01:30;-0.60;70.10
43520;DHT22;46848;51.980;5.918;2024-01-11T08:03:55;-0.40;70.10
43520;DHT22;46848;51.980;5.918;2024-01-11T08:06:21;-0.30;69.90
43520;DHT22;46848;51.980;5.918;2024-01-11T08:08:46;-0.20;69.70
43520;DHT22;46848;51.980;5.918;2024-01-11T08:11:17;-0.20;69.50
43520;DHT22;46848;51.980;5.918;2024-01-11T08:13:43;-0.10;69.40
43520;DHT22;46848;51.980;5.918;2024-01-11T08:16:08;0.00;69.10
43520;DHT22;46848;51.980;5.918;2024-01-11T08:18:35;0.00;69.20
43520;DHT22;46848;51.980;5.918;2024-01-11T08:21:00;0.10;69.10
43520;DHT22;46848;51.980;5.918;2024-01-11T08:23:26;0.20;68.70
43520;DHT22;46848;51.980;5.918;2024-01-11T08:25:52;0.20;68.60
43520;DHT22;46848;51.980;5.918;2024-01-11T08:28:20;0.30;67.90
43520;DHT22;46848;51.980;5.918;2024-01-11T08:30:45;0.40;68.30
43520;DHT22;46848;51.980;5.918;2024-01-11T08:33:11;0.40;68.10
43520;DHT22;46848;51.980;5.918;2024-01-11T08:35:37;0.50;68.10
43520;DHT22;46848;51.980;5.918;2024-01-11T08:38:05;0.50;67.80
43520;DHT22;46848;51.980;5.918;2024-01-11T08:40:30;0.60;68.20
43520;DHT22;46848;51.980;5.918;2024-01-11T08:42:56;1.30;68.30
43520;DHT22;46848;51.980;5.918;2024-01-11T08:45:21;2.40;67.90
43520;DHT22;46848;51.980;5.918;2024-01-11T08:47:47;3.40;66.60
43520;DHT22;46848;51.980;5.918;2024-01-11T08:50:14;4.40;65.10
43520;DHT22;46848;51.980;5.918;2024-01-11T08:52:40;5.10;62.90
43520;DHT22;46848;51.980;5.918;2024-01-11T08:55:06;5.60;61.60
43520;DHT22;46848;51.980;5.918;2024-01-11T08:57:32;6.10;60.50
43520;DHT22;46848;51.980;5.918;2024-01-11T08:59:58;6.40;59.10
43520;DHT22;46848;51.980;5.918;2024-01-11T09:02:24;6.50;57.80
43520;DHT22;46848;51.980;5.918;2024-01-11T09:04:49;6.60;55.70
43520;DHT22;46848;51.980;5.918;2024-01-11T09:07:15;6.70;56.00
43520;DHT22;46848;51.980;5.918;2024-01-11T09:09:41;7.00;56.20
43520;DHT22;46848;51.980;5.918;2024-01-11T09:12:07;7.20;54.10
43520;DHT22;46848;51.980;5.918;2024-01-11T09:14:32;7.30;53.90
43520;DHT22;46848;51.980;5.918;2024-01-11T09:16:58;7.50;52.70
43520;DHT22;46848;51.980;5.918;2024-01-11T09:19:23;7.60;51.80
43520;DHT22;46848;51.980;5.918;2024-01-11T09:21:49;7.80;52.40
43520;DHT22;46848;51.980;5.918;2024-01-11T09:24:15;7.90;50.60
43520;DHT22;46848;51.980;5.918;2024-01-11T09:26:40;8.00;51.80
43520;DHT22;46848;51.980;5.918;2024-01-11T09:29:06;8.00;50.80
43520;DHT22;46848;51.980;5.918;2024-01-11T09:31:32;8.00;50.00
43520;DHT22;46848;51.980;5.918;2024-01-11T09:33:57;7.70;49.60
43520;DHT22;46848;51.980;5.918;2024-01-11T09:36:23;7.40;50.20
43520;DHT22;46848;51.980;5.918;2024-01-11T09:38:48;7.50;50.60
43520;DHT22;46848;51.980;5.918;2024-01-11T09:41:14;7.50;51.00
43520;DHT22;46848;51.980;5.918;2024-01-11T09:43:43;7.50;52.00
43520;DHT22;46848;51.980;5.918;2024-01-11T09:46:11;7.40;51.20
43520;DHT22;46848;51.980;5.918;2024-01-11T09:48:38;7.30;51.20
43520;DHT22;46848;51.980;5.918;2024-01-11T09:51:09;7.10;53.00
43520;DHT22;46848;51.980;5.918;2024-01-11T09:53:37;6.80;53.20
43520;DHT22;46848;51.980;5.918;2024-01-11T09:56:07;6.20;53.10
43520;DHT22;46848;51.980;5.918;2024-01-11T09:58:34;5.50;52.60
43520;DHT22;46848;51.980;5.918;2024-01-11T10:01:07;4.80;55.00
43520;DHT22;46848;51.980;5.918;2024-01-11T10:03:34;4.40;57.90
43520;DHT22;46848;51.980;5.918;2024-01-11T10:06:00;4.10;57.70
43520;DHT22;46848;51.980;5.918;2024-01-11T10:08:27;3.70;56.90
43520;DHT22;46848;51.980;5.918;2024-01-11T10:10:54;3.40;57.50
43520;DHT22;46848;51.980;5.918;2024-01-11T10:13:29;3.20;59.50
43520;DHT22;46848;51.980;5.918;2024-01-11T10:16:11;3.20;59.60
43520;DHT22;46848;51.980;5.918;2024-01-11T10:18:41;3.30;59.10
43520;DHT22;46848;51.980;5.918;2024-01-11T10:21:07;3.40;60.10
43520;DHT22;46848;51.980;5.918;2024-01-11T10:23:38;3.60;61.00
43520;DHT22;46848;51.980;5.918;2024-01-11T10:26:04;3.90;59.80
43520;DHT22;46848;51.980;5.918;2024-01-11T10:28:30;4.10;59.50
43520;DHT22;46848;51.980;5.918;2024-01-11T10:30:56;4.20;58.00
43520;DHT22;46848;51.980;5.918;2024-01-11T10:33:22;4.20;57.80
43520;DHT22;46848;51.980;5.918;2024-01-11T10:35:49;4.10;58.90
43520;DHT22;46848;51.980;5.918;2024-01-11T10:38:15;4.10;59.80
43520;DHT22;46848;51.980;5.918;2024-01-11T10:40:42;4.20;60.90
43520;DHT22;46848;51.980;5.918;2024-01-11T10:43:12;4.20;60.80
43520;DHT22;46848;51.980;5.918;2024-01-11T10:45:41;4.30;60.90
43520;DHT22;46848;51.980;5.918;2024-01-11T10:48:13;4.30;61.50
43520;DHT22;46848;51.980;5.918;2024-01-11T10:50:43;4.40;61.80
43520;DHT22;46848;51.980;5.918;2024-01-11T10:53:16;4.50;61.40
43520;DHT22;46848;51.980;5.918;2024-01-11T10:55:46;4.40;62.00
43520;DHT22;46848;51.980;5.918;2024-01-11T10:58:13;4.30;62.30
43520;DHT22;46848;51.980;5.918;2024-01-11T11:00:40;4.20;63.20
43520;DHT22;46848;51.980;5.918;2024-01-11T11:03:07;4.00;64.30
43520;DHT22;46848;51.980;5.918;2024-01-11T11:05:34;3.70;65.20
43520;DHT22;46848;51.980;5.918;2024-01-11T11:08:01;3.60;66.20
43520;DHT22;46848;51.980;5.918;2024-01-11T11:10:28;3.50;66.70
43520;DHT22;46848;51.980;5.918;2024-01-11T11:12:55;3.30;67.10
43520;DHT22;46848;51.980;5.918;2024-01-11T11:15:24;3.10;68.00
43520;DHT22;46848;51.980;5.918;2024-01-11T11:17:49;3.00;68.70
43520;DHT22;46848;51.980;5.918;2024-01-11T11:20:15;3.00;69.10
43520;DHT22;46848;51.980;5.918;2024-01-11T11:22:42;2.90;69.30
43520;DHT22;46848;51.980;5.918;2024-01-11T11:25:11;2.80;70.40
43520;DHT22;46848;51.980;5.918;2024-01-11T11:27:48;2.70;71.20
43520;DHT22;46848;51.980;5.918;2024-01-11T11:30:14;2.60;71.40
43520;DHT22;46848;51.980;5.918;2024-01-11T11:32:43;2.60;72.10
43520;DHT22;46848;51.980;5.918;2024-01-11T11:35:09;2.70;71.50
43520;DHT22;46848;51.980;5.918;2024-01-11T11:37:38;2.70;71.60
43520;DHT22;46848;51.980;5.918;2024-01-11T11:40:09;2.70;71.40
43520;DHT22;46848;51.980;5.918;2024-01-11T11:42:36;2.80;71.30
43520;DHT22;46848;51.980;5.918;2024-01-11T11:45:02;2.80;71.60
43520;DHT22;46848;51.980;5.918;2024-01-11T11:47:35;2.80;71.50
43520;DHT22;46848;51.980;5.918;2024-01-11T11:52:32;2.90;71.50
43520;DHT22;46848;51.980;5.918;2024-01-11T11:54:59;2.90;71.60
43520;DHT22;46848;51.980;5.918;2024-01-11T11:57:27;2.90;71.50
43520;DHT22;46848;51.980;5.918;2024-01-11T11:59:58;2.90;71.50
43520;DHT22;46848;51.980;5.918;2024-01-11T12:02:27;2.90;71.60
43520;DHT22;46848;51.980;5.918;2024-01-11T12:04:53;2.90;71.60
43520;DHT22;46848;51.980;5.918;2024-01-11T12:07:20;2.90;71.60
43520;DHT22;46848;51.980;5.918;2024-01-11T12:09:47;3.00;71.50
43520;DHT22;46848;51.980;5.918;2024-01-11T12:12:13;3.00;71.60
43520;DHT22;46848;51.980;5.918;2024-01-11T12:14:39;3.00;71.40
43520;DHT22;46848;51.980;5.918;2024-01-11T12:17:06;3.10;71.40
43520;DHT22;46848;51.980;5.918;2024-01-11T12:19:32;3.10;71.60
43520;DHT22;46848;51.980;5.918;2024-01-11T12:21:58;3.10;71.80
43520;DHT22;46848;51.980;5.918;2024-01-11T12:24:24;3.10;72.10
43520;DHT22;46848;51.980;5.918;2024-01-11T12:26:50;3.10;72.30
43520;DHT22;46848;51.980;5.918;2024-01-11T12:29:23;3.00;72.70
43520;DHT22;46848;51.980;5.918;2024-01-11T12:31:50;3.00;73.60
43520;DHT22;46848;51.980;5.918;2024-01-11T12:34:16;3.00;72.80
43520;DHT22;46848;51.980;5.918;2024-01-11T12:36:41;3.00;72.70
43520;DHT22;46848;51.980;5.918;2024-01-11T12:39:08;3.10;72.60
43520;DHT22;46848;51.980;5.918;2024-01-11T12:41:35;3.10;72.70
43520;DHT22;46848;51.980;5.918;2024-01-11T12:44:02;3.10;72.70
43520;DHT22;46848;51.980;5.918;2024-01-11T12:46:28;3.20;72.60
43520;DHT22;46848;51.980;5.918;2024-01-11T12:48:53;3.10;72.90
43520;DHT22;46848;51.980;5.918;2024-01-11T12:51:20;3.10;73.60
43520;DHT22;46848;51.980;5.918;2024-01-11T12:53:46;3.00;73.30
43520;DHT22;46848;51.980;5.918;2024-01-11T12:56:15;3.10;73.30
43520;DHT22;46848;51.980;5.918;2024-01-11T12:58:42;3.10;73.20
43520;DHT22;46848;51.980;5.918;2024-01-11T13:01:08;3.20;73.10
43520;DHT22;46848;51.980;5.918;2024-01-11T13:03:34;3.20;72.80
43520;DHT22;46848;51.980;5.918;2024-01-11T13:06:02;3.30;72.90
43520;DHT22;46848;51.980;5.918;2024-01-11T13:08:27;3.30;72.80
43520;DHT22;46848;51.980;5.918;2024-01-11T13:10:54;3.40;72.70
43520;DHT22;46848;51.980;5.918;2024-01-11T13:13:20;3.40;72.70
43520;DHT22;46848;51.980;5.918;2024-01-11T13:15:45;3.40;72.60
43520;DHT22;46848;51.980;5.918;2024-01-11T13:18:11;3.40;73.00
43520;DHT22;46848;51.980;5.918;2024-01-11T13:20:37;3.30;72.80
43520;DHT22;46848;51.980;5.918;2024-01-11T13:23:19;3.30;73.50
43520;DHT22;46848;51.980;5.918;2024-01-11T13:25:49;3.20;73.40
43520;DHT22;46848;51.980;5.918;2024-01-11T13:28:15;3.20;73.30
43520;DHT22;46848;51.980;5.918;2024-01-11T13:30:42;3.30;73.40
43520;DHT22;46848;51.980;5.918;2024-01-11T13:33:09;3.30;73.30
43520;DHT22;46848;51.980;5.918;2024-01-11T13:35:37;3.30;73.20
43520;DHT22;46848;51.980;5.918;2024-01-11T13:38:03;3.30;73.20
43520;DHT22;46848;51.980;5.918;2024-01-11T13:40:29;3.40;73.20
43520;DHT22;46848;51.980;5.918;2024-01-11T13:42:55;3.40;73.10
43520;DHT22;46848;51.980;5.918;2024-01-11T13:45:26;3.50;73.10
43520;DHT22;46848;51.980;5.918;2024-01-11T13:47:53;3.50;73.00
43520;DHT22;46848;51.980;5.918;2024-01-11T13:50:22;3.60;72.90
43520;DHT22;46848;51.980;5.918;2024-01-11T13:52:49;3.50;72.90
43520;DHT22;46848;51.980;5.918;2024-01-11T13:55:16;3.50;74.00
43520;DHT22;46848;51.980;5.918;2024-01-11T13:57:42;3.50;73.90
43520;DHT22;46848;51.980;5.918;2024-01-11T14:00:09;3.60;73.60
43520;DHT22;46848;51.980;5.918;2024-01-11T14:02:37;3.50;73.50
43520;DHT22;46848;51.980;5.918;2024-01-11T14:05:03;3.60;73.50
43520;DHT22;46848;51.980;5.918;2024-01-11T14:07:29;3.60;73.50
43520;DHT22;46848;51.980;5.918;2024-01-11T14:09:56;3.60;73.40
43520;DHT22;46848;51.980;5.918;2024-01-11T14:12:21;3.60;73.40
43520;DHT22;46848;51.980;5.918;2024-01-11T14:14:47;3.60;73.40
43520;DHT22;46848;51.980;5.918;2024-01-11T14:17:13;3.70;73.30
43520;DHT22;46848;51.980;5.918;2024-01-11T14:19:38;3.70;73.30
43520;DHT22;46848;51.980;5.918;2024-01-11T14:22:04;3.70;73.20
43520;DHT22;46848;51.980;5.918;2024-01-11T14:24:30;3.70;73.20
43520;DHT22;46848;51.980;5.918;2024-01-11T14:26:55;3.70;73.10
43520;DHT22;46848;51.980;5.918;2024-01-11T14:29:21;3.70;73.20
43520;DHT22;46848;51.980;5.918;2024-01-11T14:31:46;3.70;73.30
43520;DHT22;46848;51.980;5.918;2024-01-11T14:34:13;3.70;73.30
43520;DHT22;46848;51.980;5.918;2024-01-11T14:36:39;3.70;73.30
43520;DHT22;46848;51.980;5.918;2024-01-11T14:39:04;3.80;73.40
43520;DHT22;46848;51.980;5.918;2024-01-11T14:41:31;3.70;73.40
43520;DHT22;46848;51.980;5.918;2024-01-11T14:43:57;3.70;73.40
43520;DHT22;46848;51.980;5.918;2024-01-11T14:46:25;3.70;73.50
43520;DHT22;46848;51.980;5.918;2024-01-11T14:48:51;3.70;73.40
43520;DHT22;46848;51.980;5.918;2024-01-11T14:51:16;3.70;73.70
43520;DHT22;46848;51.980;5.918;2024-01-11T14:53:42;3.60;73.50
43520;DHT22;46848;51.980;5.918;2024-01-11T14:56:08;3.60;73.60
43520;DHT22;46848;51.980;5.918;2024-01-11T14:58:33;3.70;73.70
43520;DHT22;46848;51.980;5.918;2024-01-11T15:01:00;3.70;73.80
43520;DHT22;46848;51.980;5.918;2024-01-11T15:03:26;3.60;73.80
43520;DHT22;46848;51.980;5.918;2024-01-11T15:05:52;3.70;73.90
43520;DHT22;46848;51.980;5.918;2024-01-11T15:08:18;3.70;74.00
43520;DHT22;46848;51.980;5.918;2024-01-11T15:10:45;3.60;74.00
43520;DHT22;46848;51.980;5.918;2024-01-11T15:13:11;3.60;74.30
43520;DHT22;46848;51.980;5.918;2024-01-11T15:15:36;3.60;74.30
43520;DHT22;46848;51.980;5.918;2024-01-11T15:18:02;3.60;74.30
43520;DHT22;46848;51.980;5.918;2024-01-11T15:20:28;3.60;74.40
43520;DHT22;46848;51.980;5.918;2024-01-11T15:22:54;3.60;74.50
43520;DHT22;46848;51.980;5.918;2024-01-11T15:25:19;3.60;74.50
43520;DHT22;46848;51.980;5.918;2024-01-11T15:27:46;3.60;74.70
43520;DHT22;46848;51.980;5.918;2024-01-11T15:30:12;3.50;74.70
43520;DHT22;46848;51.980;5.918;2024-01-11T15:32:39;3.50;74.90
43520;DHT22;46848;51.980;5.918;2024-01-11T15:35:05;3.50;75.00
43520;DHT22;46848;51.980;5.918;2024-01-11T15:37:33;3.50;74.90